Time;durP1;ratioP1;P1;durP2;ratioP2;P2;SDS_P1;SDS_P2;PMS_P1;PMS_P2;Temp;Humidity;BMP_temperature;BMP_pressure;BME280_temperature;BME280_humidity;BME280_pressure;Samples;Min_cycle;Max_cycle;Signal;HPM_P1;HPM_P2
2021/11/18 00:00:37;;;;;;;176.13;51.17;;;5.90;99.90;;;;;;5095532;28;20024;-69
2021/11/18 00:03:04;;;;;;;177.98;50.13;;;5.90;99.90;;;;;;5095514;28;20020;-69
2021/11/18 00:05:30;;;;;;;174.63;49.63;;;5.80;99.90;;;;;;5095107;28;20446;-69
2021/11/18 00:07:56;;;;;;;155.00;47.60;;;5.80;99.90;;;;;;5093981;28;20093;-69
2021/11/18 00:10:35;;;;;;;161.60;48.35;;;5.80;99.90;;;;;;5094661;28;20473;-69
2021/11/18 00:13:03;;;;;;;173.00;50.33;;;5.80;99.90;;;;;;5095314;28;20016;-69
2021/11/18 00:15:31;;;;;;;183.43;48.83;;;5.90;99.90;;;;;;5093830;28;20035;-69
2021/11/18 00:18:00;;;;;;;164.63;47.25;;;5.90;99.90;;;;;;5093753;28;20388;-69
2021/11/18 00:20:29;;;;;;;153.10;49.20;;;5.80;99.90;;;;;;5094584;28;20031;-69
2021/11/18 00:22:55;;;;;;;169.43;47.55;;;5.80;99.90;;;;;;5094512;28;20039;-69
2021/11/18 00:25:21;;;;;;;163.70;49.67;;;5.90;99.90;;;;;;5094312;28;20048;-69
2021/11/18 00:27:46;;;;;;;170.57;47.92;;;5.90;99.90;;;;;;5093199;28;20020;-69
2021/11/18 00:30:13;;;;;;;174.98;48.20;;;5.80;99.90;;;;;;5094970;28;20028;-68
2021/11/18 00:32:39;;;;;;;172.20;47.33;;;5.90;99.90;;;;;;5094952;28;20441;-69
2021/11/18 00:35:08;;;;;;;157.68;46.95;;;5.90;99.90;;;;;;5093716;28;20104;-69
2021/11/18 00:37:34;;;;;;;159.25;45.20;;;5.90;99.90;;;;;;5094859;28;20027;-68
2021/11/18 00:40:00;;;;;;;142.52;44.72;;;6.00;99.90;;;;;;5094821;28;20111;-69
2021/11/18 00:42:26;;;;;;;146.10;46.90;;;6.00;99.90;;;;;;5094711;28;20111;-68
2021/11/18 00:44:57;;;;;;;140.85;43.88;;;6.00;99.90;;;;;;5094624;28;20111;-69
2021/11/18 00:47:23;;;;;;;135.98;41.15;;;5.90;99.90;;;;;;5093014;28;20421;-68
2021/11/18 00:49:49;;;;;;;140.60;44.05;;;5.90;99.90;;;;;;5094615;28;20469;-68
2021/11/18 00:52:14;;;;;;;133.93;42.47;;;6.00;99.90;;;;;;5094560;28;20065;-69
2021/11/18 00:54:40;;;;;;;154.70;44.90;;;5.90;99.90;;;;;;5094559;28;20459;-69
2021/11/18 00:57:05;;;;;;;154.23;43.83;;;6.00;99.90;;;;;;5094233;28;20111;-69
2021/11/18 00:59:31;;;;;;;127.40;40.65;;;5.90;99.90;;;;;;5094463;28;20476;-69
2021/11/18 01:01:56;;;;;;;135.30;41.03;;;5.90;99.90;;;;;;5093469;28;20137;-69
2021/11/18 01:04:23;;;;;;;127.45;39.08;;;6.00;99.90;;;;;;5093981;28;20021;-69
2021/11/18 01:06:49;;;;;;;142.45;41.55;;;5.90;99.90;;;;;;5094113;28;20016;-69
2021/11/18 01:09:15;;;;;;;138.30;40.90;;;5.90;99.90;;;;;;5092606;28;20021;-68
2021/11/18 01:11:41;;;;;;;147.82;40.63;;;5.90;99.90;;;;;;5093795;28;20024;-68
2021/11/18 01:14:10;;;;;;;127.70;41.85;;;5.90;99.90;;;;;;5092522;28;20465;-68
2021/11/18 01:16:40;;;;;;;132.15;42.20;;;6.00;99.90;;;;;;5094006;28;20024;-68
2021/11/18 01:19:07;;;;;;;132.98;42.97;;;6.00;99.90;;;;;;5094256;28;20468;-68
2021/11/18 01:21:34;;;;;;;136.10;40.92;;;5.90;99.90;;;;;;5092863;28;20021;-68
2021/11/18 01:24:00;;;;;;;134.27;40.80;;;6.00;99.90;;;;;;5093827;28;20545;-68
2021/11/18 01:26:26;;;;;;;113.35;40.33;;;6.00;99.90;;;;;;5093919;28;20041;-68
2021/11/18 01:28:52;;;;;;;127.90;40.63;;;5.90;99.90;;;;;;5092994;28;20111;-68
2021/11/18 01:31:20;;;;;;;137.68;40.03;;;5.90;99.90;;;;;;5094115;28;20028;-69
2021/11/18 01:33:46;;;;;;;114.80;38.40;;;5.90;99.90;;;;;;5094071;28;20024;-68
2021/11/18 01:36:12;;;;;;;125.00;41.17;;;5.90;99.90;;;;;;5092277;28;20028;-68
2021/11/18 01:38:37;;;;;;;135.02;40.58;;;5.90;99.90;;;;;;5094046;28;20050;-68
2021/11/18 01:41:07;;;;;;;124.47;39.67;;;5.90;99.90;;;;;;5093992;28;20050;-68
2021/11/18 01:43:37;;;;;;;113.15;39.85;;;5.90;99.90;;;;;;5093984;28;20381;-69
2021/11/18 01:46:06;;;;;;;109.93;39.10;;;5.90;99.90;;;;;;5092921;28;20028;-68
2021/11/18 01:48:32;;;;;;;112.00;39.78;;;5.90;99.90;;;;;;5093939;28;20035;-68
2021/11/18 01:50:58;;;;;;;115.15;38.72;;;5.90;99.90;;;;;;5092145;28;20044;-68
2021/11/18 01:53:28;;;;;;;126.03;40.35;;;;;;;;;;5093872;28;20020;-69
2021/11/18 01:55:54;;;;;;;116.22;39.40;;;5.90;99.90;;;;;;5093639;28;20454;-68
2021/11/18 01:58:22;;;;;;;117.63;38.17;;;5.90;99.90;;;;;;5092906;28;20066;-68
2021/11/18 02:00:52;;;;;;;111.05;38.63;;;5.90;99.90;;;;;;5093849;28;20020;-68
2021/11/18 02:03:18;;;;;;;119.43;37.85;;;6.00;99.90;;;;;;5093846;28;20515;-68
2021/11/18 02:05:53;;;;;;;120.03;37.58;;;6.00;99.90;;;;;;5093434;28;20032;-68
2021/11/18 02:08:18;;;;;;;122.30;38.50;;;6.00;99.90;;;;;;5092330;28;20017;-69
2021/11/18 02:10:47;;;;;;;115.43;37.67;;;6.00;99.90;;;;;;5093765;28;20045;-69
2021/11/18 02:13:16;;;;;;;106.50;36.28;;;6.00;99.90;;;;;;5093714;28;20462;-68
2021/11/18 02:15:46;;;;;;;110.38;37.92;;;6.00;99.90;;;;;;5091816;28;20135;-68
2021/11/18 02:18:18;;;;;;;109.00;37.70;;;6.00;99.90;;;;;;5093682;28;20020;-68
2021/11/18 02:20:44;;;;;;;111.45;35.65;;;5.90;99.90;;;;;;5093569;28;20549;-68
2021/11/18 02:23:15;;;;;;;95.55;32.50;;;5.80;99.90;;;;;;5093513;28;20032;-68
2021/11/18 02:25:41;;;;;;;88.88;31.35;;;5.70;99.90;;;;;;5093459;28;20040;-68
2021/11/18 02:28:07;;;;;;;99.90;35.03;;;5.60;99.90;;;;;;5093603;28;20414;-68
2021/11/18 02:30:38;;;;;;;112.85;34.20;;;5.70;99.90;;;;;;5093270;28;20016;-68
2021/11/18 02:33:04;;;;;;;92.93;32.63;;;5.70;99.90;;;;;;5095710;28;20146;-69
2021/11/18 02:35:32;;;;;;;91.68;31.85;;;5.60;99.90;;;;;;5097219;28;20055;-69
2021/11/18 02:37:59;;;;;;;100.85;34.85;;;5.50;99.90;;;;;;5095989;28;20373;-68
2021/11/18 02:40:26;;;;;;;95.80;33.60;;;5.60;99.90;;;;;;5095723;28;20032;-69
2021/11/18 02:42:53;;;;;;;98.32;36.13;;;5.70;99.90;;;;;;5097124;28;20107;-68
2021/11/18 02:45:24;;;;;;;107.75;35.95;;;5.80;99.90;;;;;;5095106;28;20035;-68
2021/11/18 02:47:50;;;;;;;107.82;35.10;;;6.00;99.90;;;;;;5096701;28;20017;-68
2021/11/18 02:50:20;;;;;;;91.43;35.60;;;6.00;99.90;;;;;;5096944;28;20069;-68
2021/11/18 02:52:46;;;;;;;104.80;35.60;;;6.00;99.90;;;;;;5095708;28;20426;-68
2021/11/18 02:55:17;;;;;;;99.50;36.47;;;6.10;99.90;;;;;;5096798;28;20060;-69
2021/11/18 02:57:43;;;;;;;94.63;33.65;;;6.10;99.90;;;;;;5094960;28;20115;-69
2021/11/18 03:00:14;;;;;;;104.93;35.47;;;6.10;99.90;;;;;;5095284;28;20028;-68
2021/11/18 03:02:40;;;;;;;97.22;34.75;;;6.10;99.90;;;;;;5094978;28;20361;-69
2021/11/18 03:05:07;;;;;;;91.90;33.53;;;6.10;99.90;;;;;;5096548;28;20027;-68
2021/11/18 03:07:33;;;;;;;92.47;33.83;;;6.10;99.90;;;;;;5096043;28;20025;-68
2021/11/18 03:10:00;;;;;;;84.90;34.25;;;6.00;99.90;;;;;;5096559;28;20449;-69
2021/11/18 03:12:26;;;;;;;99.70;34.45;;;6.00;99.90;;;;;;5096501;28;20027;-68
2021/11/18 03:14:51;;;;;;;100.93;34.85;;;6.00;99.90;;;;;;5096500;28;20024;-68
2021/11/18 03:17:18;;;;;;;95.05;32.38;;;6.00;99.90;;;;;;5094691;28;20040;-68
2021/11/18 03:19:44;;;;;;;94.22;33.00;;;5.90;99.90;;;;;;5096306;28;20020;-68
2021/11/18 03:22:10;;;;;;;88.47;32.95;;;5.90;99.90;;;;;;5094885;28;20024;-68
2021/11/18 03:24:35;;;;;;;89.68;33.75;;;5.90;99.90;;;;;;5095738;28;20509;-68
2021/11/18 03:27:01;;;;;;;92.95;34.17;;;6.00;99.90;;;;;;5096226;28;20035;-68
2021/11/18 03:29:27;;;;;;;85.68;33.25;;;6.00;99.90;;;;;;5096099;28;20027;-68
2021/11/18 03:31:52;;;;;;;106.82;36.65;;;6.00;99.90;;;;;;5096097;28;20107;-69
2021/11/18 03:34:23;;;;;;;90.32;33.92;;;6.00;99.90;;;;;;5096099;28;20032;-69
2021/11/18 03:36:49;;;;;;;94.32;33.10;;;5.90;99.90;;;;;;5096065;28;20466;-69
2021/11/18 03:39:15;;;;;;;89.45;32.42;;;5.80;99.90;;;;;;5095972;28;20101;-69
2021/11/18 03:41:43;;;;;;;85.00;33.17;;;5.70;99.90;;;;;;5095720;28;20104;-69
2021/11/18 03:44:10;;;;;;;79.55;31.92;;;5.70;99.90;;;;;;5095784;28;20027;-69
2021/11/18 03:46:41;;;;;;;99.70;33.97;;;5.70;99.90;;;;;;5095835;28;20016;-69
2021/11/18 03:49:09;;;;;;;92.03;33.17;;;5.60;99.90;;;;;;5095511;28;20089;-69
2021/11/18 03:51:34;;;;;;;94.10;33.50;;;5.60;99.90;;;;;;5095723;28;20027;-69
2021/11/18 03:54:02;;;;;;;107.10;36.13;;;5.50;99.90;;;;;;5095653;28;20028;-69
2021/11/18 03:56:34;;;;;;;109.72;36.35;;;5.50;99.90;;;;;;5094510;28;20020;-69
2021/11/18 03:59:00;;;;;;;108.60;37.43;;;5.50;99.90;;;;;;5095657;28;20039;-68
2021/11/18 04:01:26;;;;;;;109.93;38.15;;;5.50;99.90;;;;;;5094287;28;20650;-68
2021/11/18 04:03:54;;;;;;;120.55;37.97;;;5.50;99.90;;;;;;5095491;28;20028;-69
2021/11/18 04:06:20;;;;;;;115.47;38.63;;;5.50;99.90;;;;;;5095381;28;20016;-69
2021/11/18 04:08:46;;;;;;;125.10;39.20;;;5.60;99.90;;;;;;5095434;28;20023;-69
2021/11/18 04:11:11;;;;;;;136.43;41.75;;;5.60;99.90;;;;;;5095039;28;20381;-69
2021/11/18 04:13:37;;;;;;;122.47;41.78;;;5.60;99.90;;;;;;5093524;28;20385;-69
2021/11/18 04:16:03;;;;;;;127.07;41.13;;;5.80;99.90;;;;;;5095189;28;20462;-69
2021/11/18 04:18:29;;;;;;;123.95;42.95;;;5.80;99.90;;;;;;5093254;28;20492;-68
2021/11/18 04:20:54;;;;;;;121.50;41.75;;;5.90;99.90;;;;;;5093727;28;20385;-68
2021/11/18 04:23:23;;;;;;;124.10;38.58;;;5.90;99.90;;;;;;5093906;28;20020;-68
2021/11/18 04:25:50;;;;;;;114.53;39.35;;;5.90;99.90;;;;;;5094638;28;20040;-69
2021/11/18 04:28:15;;;;;;;111.85;40.10;;;5.90;99.90;;;;;;5095004;28;20012;-69
2021/11/18 04:30:46;;;;;;;124.18;43.28;;;6.00;99.90;;;;;;5093522;28;20359;-68
2021/11/18 04:33:12;;;;;;;114.93;41.80;;;6.00;99.90;;;;;;5094914;28;20016;-68
2021/11/18 04:35:38;;;;;;;107.70;37.83;;;6.00;99.90;;;;;;5094615;28;20028;-68
2021/11/18 04:38:04;;;;;;;103.05;40.25;;;6.00;99.90;;;;;;5094831;28;20081;-69
2021/11/18 04:40:32;;;;;;;113.13;37.92;;;6.00;99.90;;;;;;5093077;28;20082;-69
2021/11/18 04:42:59;;;;;;;137.45;41.65;;;6.00;99.90;;;;;;5094544;28;20031;-68
2021/11/18 04:45:25;;;;;;;100.65;36.63;;;6.00;99.90;;;;;;5093384;28;20032;-68
2021/11/18 04:47:51;;;;;;;117.45;38.72;;;6.00;99.90;;;;;;5094668;28;20450;-68
2021/11/18 04:50:18;;;;;;;103.65;36.88;;;6.00;99.90;;;;;;5092796;28;20024;-68
2021/11/18 04:52:44;;;;;;;101.20;35.17;;;5.90;99.90;;;;;;5092903;28;20024;-68
2021/11/18 04:55:13;;;;;;;95.13;35.80;;;5.90;99.90;;;;;;5094217;28;20028;-68
2021/11/18 04:57:38;;;;;;;101.18;36.47;;;5.90;99.90;;;;;;5094543;28;20108;-68
2021/11/18 05:00:10;;;;;;;104.93;35.88;;;5.90;99.90;;;;;;5093988;28;20125;-68
2021/11/18 05:02:36;;;;;;;95.53;34.55;;;5.80;99.90;;;;;;5094441;28;20023;-68
2021/11/18 05:05:04;;;;;;;98.05;36.47;;;5.80;99.90;;;;;;5093374;28;20028;-68
2021/11/18 05:07:29;;;;;;;102.47;35.92;;;5.90;99.90;;;;;;5093858;28;20024;-68
2021/11/18 05:09:55;;;;;;;90.70;36.88;;;5.80;99.90;;;;;;5092540;28;20103;-68
2021/11/18 05:12:20;;;;;;;105.70;36.00;;;5.80;99.90;;;;;;5094276;28;20028;-68
2021/11/18 05:14:46;;;;;;;110.35;35.92;;;5.70;99.90;;;;;;5094204;28;20028;-69
2021/11/18 05:17:12;;;;;;;98.07;35.20;;;5.70;99.90;;;;;;5093963;28;20032;-68
2021/11/18 05:19:37;;;;;;;111.20;37.80;;;5.70;99.90;;;;;;5092496;28;20028;-68
2021/11/18 05:22:04;;;;;;;114.53;38.08;;;5.80;99.90;;;;;;5093882;28;20175;-68
2021/11/18 05:24:30;;;;;;;101.18;35.75;;;5.80;99.90;;;;;;5093345;28;20510;-69
2021/11/18 05:26:55;;;;;;;110.97;37.60;;;5.80;99.90;;;;;;5092660;28;20037;-69
2021/11/18 05:29:21;;;;;;;92.43;35.90;;;5.80;99.90;;;;;;5093626;28;20039;-68
2021/11/18 05:31:46;;;;;;;102.18;37.83;;;5.80;99.90;;;;;;5093754;28;20020;-68
2021/11/18 05:34:12;;;;;;;115.13;38.65;;;5.80;99.90;;;;;;5094042;28;20028;-68
2021/11/18 05:36:38;;;;;;;116.22;38.60;;;5.80;99.90;;;;;;5093794;28;20032;-68
2021/11/18 05:39:04;;;;;;;98.07;34.75;;;5.80;99.90;;;;;;5094013;28;20036;-68
2021/11/18 05:41:31;;;;;;;98.30;36.25;;;5.80;99.90;;;;;;5093786;28;20016;-68
2021/11/18 05:44:02;;;;;;;113.43;38.25;;;5.80;99.90;;;;;;5093435;28;20023;-68
2021/11/18 05:46:28;;;;;;;104.25;37.33;;;5.90;99.90;;;;;;5093663;28;20029;-68
2021/11/18 05:48:54;;;;;;;116.63;39.22;;;5.90;99.90;;;;;;5092526;28;20024;-68
2021/11/18 05:51:19;;;;;;;102.05;37.65;;;6.00;99.90;;;;;;5093351;28;20081;-68
2021/11/18 05:53:47;;;;;;;106.38;38.08;;;6.00;99.90;;;;;;5093338;28;20077;-68
2021/11/18 05:56:15;;;;;;;108.18;39.30;;;6.10;99.90;;;;;;5092408;28;20036;-68
2021/11/18 05:58:42;;;;;;;109.45;39.58;;;6.10;99.90;;;;;;5092724;28;20159;-68
2021/11/18 06:01:08;;;;;;;112.43;36.58;;;6.10;99.90;;;;;;5093874;28;20024;-68
2021/11/18 06:03:35;;;;;;;98.20;36.63;;;6.10;99.90;;;;;;5075046;28;20076;-69
2021/11/18 06:06:00;;;;;;;100.57;35.97;;;6.20;99.90;;;;;;5093728;28;20097;-68
2021/11/18 06:08:26;;;;;;;111.82;38.08;;;6.20;99.90;;;;;;5095495;28;20473;-68
2021/11/18 06:10:52;;;;;;;101.43;35.60;;;6.30;99.90;;;;;;5079040;28;20369;-68
2021/11/18 06:13:19;;;;;;;96.72;35.70;;;6.30;99.90;;;;;;5097653;28;20152;-69
2021/11/18 06:15:46;;;;;;;96.80;35.10;;;6.30;99.90;;;;;;5095866;28;20020;-69
2021/11/18 06:18:12;;;;;;;91.95;33.92;;;6.40;99.90;;;;;;5095766;28;20028;-69
2021/11/18 06:20:38;;;;;;;89.60;31.75;;;6.40;99.90;;;;;;5078793;28;20474;-69
2021/11/18 06:23:06;;;;;;;95.07;31.10;;;6.40;99.90;;;;;;5095651;28;20024;-69
2021/11/18 06:25:33;;;;;;;79.53;29.75;;;6.40;99.90;;;;;;5095494;28;20039;-69
2021/11/18 06:27:58;;;;;;;96.10;31.00;;;6.40;99.90;;;;;;5095556;28;20024;-69
2021/11/18 06:30:32;;;;;;;86.70;29.40;;;6.40;99.90;;;;;;5097324;28;20024;-69
2021/11/18 06:32:58;;;;;;;83.03;30.17;;;6.40;99.90;;;;;;5095461;28;20030;-69
2021/11/18 06:35:25;;;;;;;93.80;30.25;;;6.40;99.90;;;;;;5097174;28;20107;-69
2021/11/18 06:37:51;;;;;;;84.22;30.95;;;6.30;99.90;;;;;;5096929;28;20024;-69
2021/11/18 06:40:19;;;;;;;92.03;29.45;;;6.40;99.90;;;;;;5095689;28;20024;-69
2021/11/18 06:42:46;;;;;;;83.10;28.52;;;6.30;99.90;;;;;;5095685;28;20024;-69
2021/11/18 06:45:14;;;;;;;92.47;29.58;;;6.40;99.90;;;;;;5097012;28;20020;-69
2021/11/18 06:47:40;;;;;;;90.00;29.50;;;6.40;99.90;;;;;;5095217;28;20074;-69
2021/11/18 06:50:06;;;;;;;88.88;30.38;;;6.40;99.90;;;;;;5096675;28;20377;-69
2021/11/18 06:52:32;;;;;;;85.70;31.02;;;6.40;99.90;;;;;;5096911;28;20411;-69
2021/11/18 06:54:57;;;;;;;86.38;29.63;;;6.40;99.90;;;;;;5096842;28;20107;-69
2021/11/18 06:57:23;;;;;;;88.97;30.92;;;6.40;99.90;;;;;;5096695;28;20066;-69
2021/11/18 06:59:49;;;;;;;90.47;28.02;;;6.40;99.90;;;;;;5094916;28;20114;-70
2021/11/18 07:02:16;;;;;;;83.25;30.38;;;6.40;99.90;;;;;;5096662;28;20032;-70
2021/11/18 07:04:43;;;;;;;85.43;28.50;;;6.50;99.90;;;;;;5095380;28;20020;-69
2021/11/18 07:07:10;;;;;;;91.22;27.33;;;6.50;99.90;;;;;;5096286;28;20469;-69
2021/11/18 07:09:37;;;;;;;90.57;28.90;;;6.50;99.90;;;;;;5096539;28;20027;-70
2021/11/18 07:12:05;;;;;;;87.90;28.02;;;6.50;99.90;;;;;;5095946;28;20016;-70
2021/11/18 07:14:30;;;;;;;79.22;28.00;;;6.60;99.90;;;;;;5095032;28;20034;-69
2021/11/18 07:16:56;;;;;;;81.60;29.00;;;6.60;99.90;;;;;;5096344;28;20107;-70
2021/11/18 07:19:22;;;;;;;92.70;28.50;;;6.60;99.90;;;;;;5094595;28;20078;-70
2021/11/18 07:21:47;;;;;;;80.45;27.85;;;6.70;99.90;;;;;;5094466;28;20081;-69
2021/11/18 07:24:13;;;;;;;83.78;29.90;;;6.70;99.90;;;;;;5094514;28;20101;-70
2021/11/18 07:26:38;;;;;;;85.97;29.25;;;6.70;99.90;;;;;;5072638;28;20116;-69
2021/11/18 07:29:07;;;;;;;91.43;29.58;;;6.70;99.90;;;;;;5074000;28;20013;-69
2021/11/18 07:31:34;;;;;;;81.93;28.55;;;6.80;99.90;;;;;;5075603;28;20031;-69
2021/11/18 07:34:00;;;;;;;92.25;30.30;;;6.80;99.90;;;;;;5056652;28;20024;-70
2021/11/18 07:36:26;;;;;;;84.70;30.70;;;6.90;99.90;;;;;;5074538;28;20035;-69
2021/11/18 07:38:51;;;;;;;82.88;28.33;;;6.90;99.90;;;;;;5075587;28;20496;-70
2021/11/18 07:41:17;;;;;;;81.53;29.80;;;6.90;99.90;;;;;;5073869;28;20385;-70
2021/11/18 07:43:45;;;;;;;97.47;29.58;;;6.90;99.90;;;;;;5075343;28;20028;-69
2021/11/18 07:46:13;;;;;;;87.18;30.90;;;6.90;99.90;;;;;;5074555;28;20496;-70
2021/11/18 07:48:40;;;;;;;87.88;28.45;;;7.00;99.90;;;;;;5056456;28;20508;-70
2021/11/18 07:51:08;;;;;;;92.35;29.65;;;7.00;99.90;;;;;;5073098;28;20070;-70
2021/11/18 07:53:34;;;;;;;81.90;28.55;;;7.10;99.90;;;;;;5073421;28;20017;-70
2021/11/18 07:56:01;;;;;;;90.97;29.23;;;7.10;99.90;;;;;;5074595;28;20102;-70
2021/11/18 07:58:28;;;;;;;84.13;28.48;;;7.20;99.90;;;;;;5074978;28;20028;-70
2021/11/18 08:00:55;;;;;;;82.63;29.40;;;7.30;99.90;;;;;;5073391;28;20028;-70
2021/11/18 08:03:22;;;;;;;90.18;29.95;;;7.30;99.90;;;;;;5089119;28;20024;-70
2021/11/18 08:05:48;;;;;;;86.88;30.00;;;7.40;99.90;;;;;;5072966;28;20033;-70
2021/11/18 08:08:14;;;;;;;93.85;29.15;;;7.50;99.90;;;;;;5073641;28;20020;-70
2021/11/18 08:10:40;;;;;;;96.13;29.30;;;7.50;99.90;;;;;;5073658;28;20074;-70
2021/11/18 08:13:05;;;;;;;88.68;29.42;;;7.60;99.90;;;;;;5073168;28;20021;-70
2021/11/18 08:15:31;;;;;;;85.40;29.55;;;7.60;99.90;;;;;;5074614;28;20032;-70
2021/11/18 08:17:57;;;;;;;80.80;28.85;;;7.70;99.90;;;;;;5074302;28;20025;-70
2021/11/18 08:20:24;;;;;;;77.38;28.17;;;7.70;99.90;;;;;;5074074;28;20029;-70
2021/11/18 08:22:51;;;;;;;75.43;27.48;;;7.80;99.90;;;;;;5074797;28;20060;-70
2021/11/18 08:25:18;;;;;;;73.30;27.83;;;7.90;99.90;;;;;;5073557;28;20036;-70
2021/11/18 08:27:45;;;;;;;81.93;28.00;;;7.90;99.90;;;;;;5074712;28;20023;-70
2021/11/18 08:30:17;;;;;;;79.63;28.00;;;7.90;99.90;;;;;;5073478;28;20021;-70
2021/11/18 08:32:46;;;;;;;76.90;27.98;;;7.90;99.90;;;;;;5072955;28;20469;-70
2021/11/18 08:35:14;;;;;;;69.78;26.95;;;7.90;99.90;;;;;;5073740;28;20501;-70
2021/11/18 08:37:40;;;;;;;68.20;28.35;;;8.00;99.90;;;;;;5072643;28;20033;-70
2021/11/18 08:40:07;;;;;;;76.95;28.77;;;8.00;99.90;;;;;;5073995;28;20102;-69
2021/11/18 08:42:32;;;;;;;73.93;27.42;;;8.00;99.90;;;;;;5072486;28;20120;-70
2021/11/18 08:44:58;;;;;;;82.68;30.17;;;8.10;99.90;;;;;;5073738;28;20115;-70
2021/11/18 08:47:25;;;;;;;75.60;29.10;;;8.10;99.90;;;;;;5074316;28;20021;-71
2021/11/18 08:49:51;;;;;;;78.78;28.25;;;8.20;99.90;;;;;;5074127;28;20025;-70
2021/11/18 08:52:20;;;;;;;70.47;27.20;;;8.50;99.90;;;;;;5074252;28;20028;-70
2021/11/18 08:54:49;;;;;;;70.45;27.08;;;8.60;99.90;;;;;;5073688;28;20031;-70
2021/11/18 08:57:16;;;;;;;73.57;26.23;;;9.00;99.90;;;;;;5073634;28;20029;-70
2021/11/18 08:59:42;;;;;;;68.25;26.77;;;9.40;99.90;;;;;;5072676;28;20416;-70
2021/11/18 09:02:11;;;;;;;63.22;24.15;;;9.40;99.90;;;;;;5072710;28;20070;-70
2021/11/18 09:04:38;;;;;;;54.63;23.48;;;9.50;99.90;;;;;;5073366;28;20039;-70
2021/11/18 09:07:04;;;;;;;51.85;22.73;;;9.60;99.90;;;;;;5073576;28;20093;-70
2021/11/18 09:09:30;;;;;;;60.80;24.30;;;9.30;99.90;;;;;;5073028;28;20024;-70
2021/11/18 09:11:57;;;;;;;63.00;24.38;;;9.10;99.90;;;;;;5073597;28;20386;-70
2021/11/18 09:14:25;;;;;;;58.70;25.23;;;9.10;99.90;;;;;;5055231;28;20385;-70
2021/11/18 09:16:52;;;;;;;67.47;25.77;;;8.90;99.90;;;;;;5073418;28;20023;-70
2021/11/18 09:19:23;;;;;;;63.28;24.08;;;8.80;99.90;;;;;;5073615;28;20099;-70
2021/11/18 09:21:51;;;;;;;66.40;24.65;;;8.80;99.90;;;;;;5073270;28;20028;-70
2021/11/18 09:24:25;;;;;;;71.28;24.63;;;8.80;99.90;;;;;;5073099;28;20056;-70
2021/11/18 09:26:56;;;;;;;69.25;24.40;;;8.80;99.90;;;;;;5072455;28;20025;-70
2021/11/18 09:29:22;;;;;;;59.47;24.70;;;8.90;99.90;;;;;;5073197;28;20117;-70
2021/11/18 09:31:48;;;;;;;61.13;23.73;;;9.00;99.90;;;;;;5072047;28;20036;-70
2021/11/18 09:34:15;;;;;;;64.07;22.85;;;9.00;99.90;;;;;;5073051;28;20020;-70
2021/11/18 09:36:42;;;;;;;66.80;24.15;;;9.00;99.90;;;;;;5073410;28;20029;-70
2021/11/18 09:39:09;;;;;;;63.63;25.02;;;9.00;99.90;;;;;;5071884;28;20024;-70
2021/11/18 09:41:47;;;;;;;60.00;25.55;;;9.00;99.90;;;;;;5074673;28;20052;-71
2021/11/18 09:44:51;;;;;;;64.82;22.23;;;9.10;99.90;;;;;;5075974;28;20059;-70
2021/11/18 09:47:46;;;;;;;68.22;23.08;;;9.20;99.90;;;;;;5077199;28;20103;-71
2021/11/18 09:50:34;;;;;;;54.78;21.35;;;9.20;99.90;;;;;;5058784;28;20052;-71
2021/11/18 09:53:30;;;;;;;58.00;21.38;;;9.30;99.90;;;;;;5077270;28;20480;-70
2021/11/18 09:56:04;;;;;;;54.42;18.08;;;9.30;99.90;;;;;;5077067;28;20063;-70
2021/11/18 09:59:00;;;;;;;58.88;20.00;;;9.40;99.90;;;;;;5075737;28;20479;-70
2021/11/18 10:01:54;;;;;;;65.85;20.60;;;9.30;99.90;;;;;;5075010;28;20028;-70
2021/11/18 10:04:42;;;;;;;53.05;18.92;;;9.30;99.90;;;;;;5073671;28;20021;-70
2021/11/18 10:07:17;;;;;;;54.10;19.10;;;9.20;99.90;;;;;;5059533;28;20067;-70
2021/11/18 10:10:09;;;;;;;50.42;18.90;;;9.30;99.90;;;;;;5074394;28;20056;-71
2021/11/18 10:13:05;;;;;;;46.83;19.55;;;9.50;99.90;;;;;;5085604;28;20056;-71
2021/11/18 10:15:36;;;;;;;55.75;18.65;;;10.00;99.90;;;;;;5075967;28;20032;-71
2021/11/18 10:18:16;;;;;;;42.88;15.70;;;10.50;99.90;;;;;;5090438;28;20027;-71
2021/11/18 10:20:44;;;;;;;46.42;16.27;;;11.00;99.90;;;;;;5095819;28;20028;-67
2021/11/18 10:23:14;;;;;;;46.15;16.25;;;11.10;99.90;;;;;;5092808;28;20020;-67
2021/11/18 10:25:46;;;;;;;47.63;16.67;;;10.90;99.90;;;;;;5070448;28;20094;-66
2021/11/18 10:31:19;;;;;;;46.05;16.77;;;10.60;99.90;;;;;;5110325;27;20370;-66
2021/11/18 10:33:56;;;;;;;45.45;15.60;;;10.50;99.90;;;;;;5109223;28;20030;-67
2021/11/18 10:37:02;;;;;;;49.55;15.35;;;10.60;99.90;;;;;;5092107;28;20097;-66
2021/11/18 10:39:59;;;;;;;42.78;16.25;;;10.60;99.90;;;;;;5108621;28;20480;-66
2021/11/18 10:42:33;;;;;;;50.72;16.13;;;10.90;99.90;;;;;;5091816;28;20111;-66
2021/11/18 10:45:06;;;;;;;46.00;14.48;;;11.20;99.90;;;;;;5110990;28;20027;-66
2021/11/18 10:50:38;;;;;;;42.40;14.65;;;11.00;99.90;;;;;;5091491;27;20179;-69
2021/11/18 10:53:27;;;;;;;33.97;14.07;;;10.90;99.90;;;;;;5091905;28;20024;-71
2021/11/18 10:58:37;;;;;;;41.25;15.07;;;11.10;99.90;;;;;;5111189;27;20554;-71
2021/11/18 11:01:18;;;;;;;44.95;15.13;;;11.80;99.90;;;;;;5098189;28;20024;-71
2021/11/18 11:03:45;;;;;;;39.95;12.40;;;11.50;99.90;;;;;;5090797;28;20031;-71
2021/11/18 11:06:14;;;;;;;43.42;14.65;;;11.70;99.90;;;;;;5072908;28;20020;-71
2021/11/18 11:08:44;;;;;;;37.08;14.45;;;11.70;99.90;;;;;;5091170;28;20035;-71
2021/11/18 11:11:50;;;;;;;36.05;14.13;;;12.00;99.90;;;;;;5090599;28;20028;-71
2021/11/18 11:17:13;;;;;;;46.13;14.25;;;11.60;99.90;;;;;;5128806;27;20365;-72
2021/11/18 11:20:08;;;;;;;43.60;14.73;;;11.30;99.90;;;;;;5125823;27;20445;-71
2021/11/18 11:22:58;;;;;;;42.53;14.00;;;11.30;99.90;;;;;;5116548;27;20028;-72
2021/11/18 11:25:42;;;;;;;46.03;14.77;;;11.40;99.90;;;;;;5130126;28;20108;-71
2021/11/18 11:28:44;;;;;;;43.83;14.50;;;11.30;99.90;;;;;;5129891;28;20423;-71
2021/11/18 11:31:34;;;;;;;33.90;12.48;;;11.10;99.90;;;;;;5112525;28;20032;-71
2021/11/18 11:34:29;;;;;;;42.55;12.85;;;11.00;99.90;;;;;;5115936;28;20024;-71
2021/11/18 11:37:34;;;;;;;41.95;13.57;;;11.00;99.90;;;;;;5123187;27;20027;-71
2021/11/18 11:40:30;;;;;;;39.55;13.15;;;11.00;99.90;;;;;;5115811;28;20369;-71
2021/11/18 11:43:35;;;;;;;41.78;12.93;;;11.30;99.90;;;;;;5101570;28;20031;-71
2021/11/18 11:46:29;;;;;;;36.58;11.25;;;11.40;99.90;;;;;;5119186;28;20445;-71
2021/11/18 11:49:04;;;;;;;42.60;11.57;;;11.50;99.90;;;;;;5123240;28;20040;-71
2021/11/18 11:51:43;;;;;;;35.03;10.68;;;11.60;99.90;;;;;;5119538;28;20027;-71
2021/11/18 11:54:49;;;;;;;37.78;11.35;;;11.60;99.90;;;;;;5127905;27;20020;-71
2021/11/18 11:57:46;;;;;;;39.78;10.98;;;11.50;99.90;;;;;;5114119;28;20032;-71
2021/11/18 12:00:35;;;;;;;31.98;10.35;;;11.40;99.90;;;;;;5130815;27;20474;-70
2021/11/18 12:03:25;;;;;;;34.00;10.77;;;11.30;99.90;;;;;;5118956;28;20031;-70
2021/11/18 12:06:15;;;;;;;34.28;10.43;;;11.30;99.90;;;;;;5110896;28;20016;-70
2021/11/18 12:09:05;;;;;;;35.40;10.57;;;11.30;99.90;;;;;;5112338;28;20020;-71
2021/11/18 12:14:28;;;;;;;46.53;13.25;;;11.30;99.90;;;;;;5126331;27;20369;-71
2021/11/18 12:17:02;;;;;;;33.50;10.05;;;11.40;99.90;;;;;;5132209;27;20490;-70
2021/11/18 12:19:55;;;;;;;28.58;9.68;;;11.50;99.90;;;;;;5115518;27;20024;-70
2021/11/18 12:22:33;;;;;;;38.63;10.30;;;11.60;99.90;;;;;;5116483;28;20106;-70
2021/11/18 12:25:29;;;;;;;33.22;9.95;;;11.50;99.90;;;;;;5112151;28;20336;-71
2021/11/18 12:28:18;;;;;;;30.83;9.00;;;11.40;99.90;;;;;;5111844;28;20417;-70
2021/11/18 12:36:41;;;;;;;33.47;9.10;;;11.40;99.90;;;;;;5103415;27;20326;-71
2021/11/18 12:39:39;;;;;;;35.53;9.68;;;11.30;99.90;;;;;;5090064;28;20386;-70
2021/11/18 12:42:32;;;;;;;35.33;9.95;;;11.50;99.90;;;;;;5089462;28;20023;-71
2021/11/18 12:45:19;;;;;;;29.23;8.20;;;11.60;99.90;;;;;;5090012;28;20025;-71
2021/11/18 12:47:53;;;;;;;33.42;8.68;;;11.80;99.90;;;;;;5090429;28;20040;-71
2021/11/18 12:50:44;;;;;;;33.58;9.82;;;12.00;99.90;;;;;;5090910;28;20020;-71
2021/11/18 12:56:10;;;;;;;34.35;9.80;;;11.90;99.90;;;;;;5112035;27;20351;-71
2021/11/18 12:58:42;;;;;;;30.77;9.35;;;11.80;99.90;;;;;;5130986;28;20035;-71
2021/11/18 13:04:03;;;;;;;34.20;10.00;;;11.60;99.90;;;;;;5090941;28;20417;-72
2021/11/18 13:09:11;;;;;;;36.13;9.90;;;11.50;99.90;;;;;;5113955;27;20436;-72
2021/11/18 13:11:58;;;;;;;37.50;10.13;;;11.40;99.90;;;;;;5110293;28;20102;-72
2021/11/18 13:14:32;;;;;;;30.08;10.38;;;11.30;99.90;;;;;;5110822;28;20392;-72
2021/11/18 13:22:26;;;;;;;32.17;9.05;;;11.20;99.90;;;;;;5109667;27;20283;-71
2021/11/18 13:25:16;;;;;;;39.65;10.63;;;11.10;99.90;;;;;;5097478;28;20103;-71